Time;durP1;ratioP1;P1;durP2;ratioP2;P2;SDS_P1;SDS_P2;PMS_P1;PMS_P2;Temp;Humidity;BMP_temperature;BMP_pressure;BME280_temperature;BME280_humidity;BME280_pressure;Samples;Min_cycle;Max_cycle;Signal;HPM_P1;HPM_P2
2022/08/31 00:04:02;;;;;;;8.77;5.15;;;;;;;15.90;76.91;102095.72;5094763;28;20089;-80
2022/08/31 00:06:33;;;;;;;9.98;5.10;;;;;;;15.75;77.02;102073.28;5094636;28;20024;-80
2022/08/31 00:08:59;;;;;;;7.38;5.25;;;;;;;15.80;77.58;102092.03;5094025;28;20032;-80
2022/08/31 00:11:29;;;;;;;10.02;5.88;;;;;;;15.77;77.84;102100.88;5094039;28;20024;-80
2022/08/31 00:14:00;;;;;;;7.07;4.90;;;;;;;15.73;78.09;102096.81;5093749;28;20464;-80
2022/08/31 00:16:29;;;;;;;6.78;4.75;;;;;;;15.72;78.13;102091.69;5094373;28;20024;-80
2022/08/31 00:18:55;;;;;;;9.35;5.22;;;;;;;15.68;78.45;102096.28;5093839;28;20039;-79
2022/08/31 00:21:25;;;;;;;8.68;4.70;;;;;;;15.63;78.73;102095.75;5093811;28;20376;-80
2022/08/31 00:23:51;;;;;;;8.23;5.05;;;;;;;15.50;78.82;102085.22;5092168;28;20475;-79
2022/08/31 00:26:17;;;;;;;9.90;5.18;;;;;;;15.31;79.12;102058.69;5093290;28;20044;-80
2022/08/31 00:28:43;;;;;;;9.88;5.15;;;;;;;15.56;79.04;102098.81;5093556;28;20047;-80
2022/08/31 00:31:09;;;;;;;8.80;4.45;;;;;;;15.54;79.10;102091.09;5093739;28;20161;-79
2022/08/31 00:33:37;;;;;;;8.00;5.00;;;;;;;15.50;79.56;102092.19;5093515;28;20486;-79
2022/08/31 00:36:05;;;;;;;10.00;5.43;;;;;;;15.47;79.83;102090.63;5093354;28;20467;-78
2022/08/31 00:38:31;;;;;;;9.93;4.82;;;;;;;15.40;79.82;102075.50;5093526;28;20153;-80
2022/08/31 00:40:57;;;;;;;7.88;5.68;;;;;;;15.46;79.86;102096.78;5093273;28;20051;-80
2022/08/31 00:43:44;;;;;;;6.93;4.93;;;;;;;15.43;79.30;102080.50;5093248;28;20119;-80
2022/08/31 00:46:12;;;;;;;8.27;5.13;;;;;;;15.37;80.39;102088.72;5093370;28;20107;-79
2022/08/31 00:48:43;;;;;;;8.82;5.50;;;;;;;15.32;80.68;102089.00;5093535;28;20020;-80
2022/08/31 00:51:09;;;;;;;8.90;5.20;;;;;;;15.33;80.61;102095.03;5093486;28;20035;-80
2022/08/31 00:53:36;;;;;;;8.05;5.35;;;;;;;15.18;80.64;102069.03;5092965;28;20117;-80
2022/08/31 00:56:02;;;;;;;7.40;4.97;;;;;;;15.25;80.98;102082.53;5092954;28;20374;-80
2022/08/31 00:58:28;;;;;;;9.60;5.43;;;;;;;15.28;81.26;102086.69;5093133;28;20107;-80
2022/08/31 01:00:53;;;;;;;8.50;5.45;;;;;;;15.17;81.33;102071.75;5092999;28;20081;-80
2022/08/31 01:03:20;;;;;;;7.95;4.75;;;;;;;15.22;81.19;102082.69;5092737;28;20031;-79
2022/08/31 01:05:45;;;;;;;9.82;5.25;;;;;;;15.25;81.41;102086.88;5093052;28;20028;-80
2022/08/31 01:08:12;;;;;;;9.82;5.57;;;;;;;15.18;81.09;102076.84;5092900;28;20096;-80
2022/08/31 01:10:42;;;;;;;10.90;5.32;;;;;;;15.28;80.79;102082.31;5093009;28;20467;-80
2022/08/31 01:13:11;;;;;;;8.00;4.63;;;;;;;15.25;80.96;102076.47;5092833;28;20081;-80
2022/08/31 01:15:38;;;;;;;8.52;5.10;;;;;;;15.33;80.71;102080.25;5092937;28;20051;-80
2022/08/31 01:18:05;;;;;;;8.77;4.88;;;;;;;15.20;80.61;102064.56;5092690;28;20031;-80
2022/08/31 01:21:02;;;;;;;8.40;5.40;;;;;;;15.26;80.57;102086.78;5092800;28;20074;-80
2022/08/31 01:23:34;;;;;;;7.90;5.60;;;;;;;15.12;80.71;102064.22;5092791;28;20031;-80
2022/08/31 01:26:01;;;;;;;9.93;5.13;;;;;;;15.27;80.90;102085.84;5092318;28;20436;-80
2022/08/31 01:28:27;;;;;;;7.30;5.18;;;;;;;15.26;80.78;102078.16;5092481;28;20032;-79
2022/08/31 01:31:06;;;;;;;9.10;5.15;;;;;;;15.26;80.77;102081.59;5092585;28;20028;-79
2022/08/31 01:33:34;;;;;;;6.57;4.45;;;;;;;15.25;80.90;102081.69;5092435;28;20020;-80
2022/08/31 01:35:59;;;;;;;10.40;4.85;;;;;;;14.98;80.87;102040.00;5092440;28;20378;-80
2022/08/31 01:38:25;;;;;;;10.23;5.75;;;;;;;15.17;81.19;102080.38;5092597;28;20099;-78
2022/08/31 01:40:55;;;;;;;8.65;5.43;;;;;;;15.16;81.39;102086.53;5092660;28;20024;-80
2022/08/31 01:43:20;;;;;;;9.68;4.90;;;;;;;15.12;81.24;102077.22;5092613;28;20031;-80
2022/08/31 01:45:46;;;;;;;8.88;5.00;;;;;;;14.99;81.33;102057.28;5092490;28;20024;-80
2022/08/31 01:48:12;;;;;;;8.07;5.20;;;;;;;15.08;81.69;102093.97;5092456;28;20027;-81
2022/08/31 01:50:37;;;;;;;8.77;5.40;;;;;;;15.02;81.61;102086.53;5092438;28;20024;-80
2022/08/31 01:53:03;;;;;;;7.45;4.80;;;;;;;15.04;81.78;102089.03;5092644;28;20035;-80
2022/08/31 01:55:28;;;;;;;7.97;5.22;;;;;;;14.91;82.04;102068.16;5092528;28;20036;-80
2022/08/31 01:57:56;;;;;;;8.43;4.78;;;;;;;15.00;82.15;102090.16;5092469;28;20035;-80
2022/08/31 02:00:22;;;;;;;11.07;5.43;;;;;;;14.98;81.96;102081.63;5092480;28;20050;-80
2022/08/31 02:02:47;;;;;;;8.82;5.18;;;;;;;14.94;82.18;102083.56;5092332;28;20475;-80
2022/08/31 02:05:13;;;;;;;8.75;4.70;;;;;;;14.92;82.16;102086.25;5092318;28;20028;-80
2022/08/31 02:07:38;;;;;;;9.32;5.00;;;;;;;14.90;82.35;102084.69;5092493;28;20027;-80
2022/08/31 02:10:04;;;;;;;7.95;5.03;;;;;;;14.86;82.30;102085.81;5092434;28;20028;-80
2022/08/31 02:12:30;;;;;;;9.65;5.13;;;;;;;14.85;82.65;102084.16;5092152;28;20024;-80
2022/08/31 02:14:55;;;;;;;11.15;5.20;;;;;;;14.83;82.32;102078.19;5095095;28;20027;-80
2022/08/31 02:17:20;;;;;;;11.00;5.45;;;;;;;14.80;82.65;102081.81;5096335;28;20035;-79
2022/08/31 02:19:45;;;;;;;6.53;5.03;;;;;;;14.71;82.70;102068.53;5096019;28;20479;-80
2022/08/31 02:22:11;;;;;;;9.55;5.40;;;;;;;14.59;83.14;102065.75;5095928;28;20147;-80
2022/08/31 02:24:36;;;;;;;7.90;5.30;;;;;;;14.71;82.99;102076.31;5095959;28;20020;-79
2022/08/31 02:27:02;;;;;;;9.25;5.55;;;;;;;14.73;83.06;102087.47;5095701;28;20055;-80
2022/08/31 02:29:27;;;;;;;8.18;5.32;;;;;;;14.72;83.08;102096.19;5095875;28;20016;-80
2022/08/31 02:31:53;;;;;;;10.02;5.60;;;;;;;14.62;83.07;102077.72;5095915;28;20016;-80
2022/08/31 02:34:18;;;;;;;8.52;5.20;;;;;;;14.66;83.13;102101.78;5095791;28;20195;-78
2022/08/31 02:36:44;;;;;;;8.50;4.88;;;;;;;14.62;82.88;102093.31;5094113;28;20036;-80
2022/08/31 02:39:10;;;;;;;8.77;5.55;;;;;;;14.43;83.37;102077.09;5095811;28;20051;-80
2022/08/31 02:41:35;;;;;;;9.23;5.60;;;;;;;14.49;83.50;102088.03;5095745;28;20024;-80
2022/08/31 02:44:01;;;;;;;9.15;4.95;;;;;;;14.50;83.67;102096.66;5095686;28;20467;-80
2022/08/31 02:46:26;;;;;;;7.32;4.97;;;;;;;14.48;83.76;102099.34;5095679;28;20082;-79
2022/08/31 02:48:52;;;;;;;8.95;5.43;;;;;;;14.46;83.78;102092.56;5095717;28;20024;-80
2022/08/31 02:51:17;;;;;;;8.85;5.35;;;;;;;14.38;83.59;102084.34;5095364;28;20080;-80
2022/08/31 02:53:42;;;;;;;6.65;4.80;;;;;;;14.38;83.82;102102.53;5095694;28;20020;-80
2022/08/31 02:56:08;;;;;;;8.25;5.30;;;;;;;14.35;83.96;102098.34;5095241;28;20111;-80
2022/08/31 02:58:35;;;;;;;8.35;5.03;;;;;;;14.31;84.09;102100.28;5095218;28;20077;-80
2022/08/31 03:01:00;;;;;;;10.85;5.45;;;;;;;14.19;83.98;102075.03;5095390;28;20451;-76
2022/08/31 03:03:26;;;;;;;10.90;5.72;;;;;;;14.27;84.00;102090.19;5095381;28;20103;-75
2022/08/31 03:05:51;;;;;;;7.75;4.80;;;;;;;14.25;83.83;102086.81;5095267;28;20109;-75
2022/08/31 03:08:17;;;;;;;8.55;4.97;;;;;;;14.13;83.69;102075.38;5095181;28;20335;-79
2022/08/31 03:10:43;;;;;;;10.50;5.05;;;;;;;14.17;83.89;102086.44;5095117;28;20060;-79
2022/08/31 03:13:08;;;;;;;7.53;4.78;;;;;;;14.01;83.57;102060.50;5095051;28;20024;-80
2022/08/31 03:15:33;;;;;;;7.35;4.78;;;;;;;14.03;83.81;102069.03;5095108;28;20028;-80
2022/08/31 03:17:58;;;;;;;11.52;4.93;;;;;;;14.15;83.97;102096.06;5094824;28;20092;-80
2022/08/31 03:20:26;;;;;;;9.35;4.93;;;;;;;14.01;83.79;102076.09;5095157;28;20024;-80
2022/08/31 03:22:53;;;;;;;8.35;4.72;;;;;;;14.14;83.33;102092.63;5093501;28;20063;-80
2022/08/31 03:25:18;;;;;;;6.90;4.57;;;;;;;14.01;83.46;102076.94;5094292;28;20493;-80
2022/08/31 03:27:45;;;;;;;8.82;5.13;;;;;;;14.11;83.43;102089.38;5094933;28;20031;-80
2022/08/31 03:30:13;;;;;;;6.82;4.78;;;;;;;14.00;83.73;102084.81;5094614;28;20024;-80
2022/08/31 03:32:39;;;;;;;8.05;5.25;;;;;;;14.00;83.63;102095.19;5094739;28;20024;-81
2022/08/31 03:35:05;;;;;;;11.27;5.13;;;;;;;13.96;83.56;102091.94;5094857;28;20041;-80
2022/08/31 03:37:31;;;;;;;8.02;4.50;;;;;;;13.94;83.30;102093.78;5093020;28;20089;-80
2022/08/31 03:39:57;;;;;;;7.93;4.60;;;;;;;13.92;83.56;102098.22;5093315;28;20020;-78
2022/08/31 03:42:23;;;;;;;9.60;5.32;;;;;;;13.83;83.20;102087.53;5094893;28;20089;-79
2022/08/31 03:44:49;;;;;;;8.13;4.78;;;;;;;13.82;83.05;102091.88;5094314;28;20024;-80
2022/08/31 03:47:15;;;;;;;7.10;4.53;;;;;;;13.83;83.04;102092.72;5094459;28;20035;-80
2022/08/31 03:49:41;;;;;;;8.15;4.47;;;;;;;13.57;82.80;102066.47;5094356;28;20027;-80
2022/08/31 03:52:07;;;;;;;9.25;4.57;;;;;;;13.72;82.64;102077.75;5094429;28;20032;-80
2022/08/31 03:54:32;;;;;;;6.43;4.47;;;;;;;13.79;82.55;102099.84;5094336;28;20032;-79
2022/08/31 03:56:58;;;;;;;7.82;4.40;;;;;;;13.71;82.45;102083.88;5094340;28;20035;-79
2022/08/31 03:59:23;;;;;;;7.28;3.92;;;;;;;13.65;82.70;102081.59;5094371;28;20031;-79
2022/08/31 04:01:48;;;;;;;7.45;4.45;;;;;;;13.69;82.53;102098.69;5094223;28;20101;-80
2022/08/31 04:04:14;;;;;;;7.47;4.45;;;;;;;13.66;82.46;102101.44;5094281;28;20052;-79
2022/08/31 04:06:40;;;;;;;6.90;4.18;;;;;;;13.64;82.11;102101.53;5093894;28;20111;-76
2022/08/31 04:09:06;;;;;;;8.20;4.68;;;;;;;13.63;82.19;102109.41;5093990;28;20031;-79
2022/08/31 04:11:31;;;;;;;8.38;4.60;;;;;;;13.60;82.04;102104.41;5094265;28;20406;-79
2022/08/31 04:13:57;;;;;;;12.32;5.20;;;;;;;13.59;81.66;102100.97;5094260;28;20024;-80
2022/08/31 04:16:23;;;;;;;7.40;4.28;;;;;;;13.59;81.75;102107.91;5093992;28;20371;-79
2022/08/31 04:18:48;;;;;;;6.40;4.45;;;;;;;13.41;81.52;102081.22;5093898;28;20042;-76
2022/08/31 04:21:20;;;;;;;7.63;4.57;;;;;;;13.36;81.66;102083.22;5093704;28;20016;-80
2022/08/31 04:23:47;;;;;;;10.57;5.07;;;;;;;13.45;81.49;102112.09;5093750;28;20019;-79
2022/08/31 04:26:18;;;;;;;8.13;4.40;;;;;;;13.43;81.99;102111.34;5093575;28;20044;-79
2022/08/31 04:28:44;;;;;;;6.80;4.53;;;;;;;13.32;82.21;102098.13;5094060;28;20079;-80
2022/08/31 04:31:09;;;;;;;7.32;4.55;;;;;;;13.36;82.09;102116.94;5093496;28;20036;-81
2022/08/31 04:33:36;;;;;;;7.80;4.10;;;;;;;13.36;81.90;102117.78;5093540;28;20034;-79
2022/08/31 04:36:11;;;;;;;8.30;4.18;;;;;;;13.23;81.88;102101.19;5092875;28;20451;-77
2022/08/31 04:38:37;;;;;;;7.72;4.18;;;;;;;13.33;81.25;102112.75;5093597;28;20032;-77
2022/08/31 04:41:10;;;;;;;6.95;3.90;;;;;;;13.31;81.43;102119.78;5093792;28;20016;-77
2022/08/31 04:43:36;;;;;;;6.30;4.18;;;;;;;13.33;80.88;102119.72;5093546;28;20078;-79
2022/08/31 04:46:04;;;;;;;6.93;4.22;;;;;;;13.25;80.81;102107.13;5093645;28;20111;-80
2022/08/31 04:48:30;;;;;;;5.45;3.80;;;;;;;13.24;80.75;102110.66;5093154;28;20085;-79
2022/08/31 04:51:03;;;;;;;8.45;3.88;;;;;;;13.28;80.40;102124.31;5093416;28;20381;-79
2022/08/31 04:53:29;;;;;;;7.13;3.50;;;;;;;13.26;80.04;102115.75;5091985;28;20402;-79
2022/08/31 04:55:55;;;;;;;5.65;3.42;;;;;;;13.29;79.55;102126.00;5093378;28;20031;-80
2022/08/31 04:58:22;;;;;;;7.72;4.00;;;;;;;13.30;79.27;102125.06;5093212;28;20050;-78
2022/08/31 05:00:48;;;;;;;7.38;4.00;;;;;;;13.29;79.22;102119.03;5093188;28;20020;-79
2022/08/31 05:03:14;;;;;;;5.88;3.58;;;;;;;13.31;78.68;102118.97;5093022;28;20016;-80
2022/08/31 05:05:40;;;;;;;7.25;3.53;;;;;;;13.31;78.37;102122.38;5093068;28;20020;-79
2022/08/31 05:08:05;;;;;;;8.63;3.50;;;;;;;13.21;78.08;102108.25;5093110;28;20514;-79
2022/08/31 05:10:31;;;;;;;5.50;3.00;;;;;;;13.09;78.10;102080.34;5091456;28;20511;-78
2022/08/31 05:12:56;;;;;;;7.22;3.53;;;;;;;13.18;77.99;102096.25;5093076;28;20024;-78
2022/08/31 05:15:22;;;;;;;6.13;3.38;;;;;;;13.29;77.41;102116.44;5093019;28;20024;-81
2022/08/31 05:17:47;;;;;;;5.10;2.80;;;;;;;13.37;77.08;102127.25;5092720;28;20039;-79
2022/08/31 05:20:13;;;;;;;5.72;2.90;;;;;;;13.20;77.13;102098.78;5091638;28;20111;-81
2022/08/31 05:22:38;;;;;;;6.35;3.10;;;;;;;13.43;76.92;102139.03;5092861;28;20023;-82
2022/08/31 05:25:05;;;;;;;5.65;2.67;;;;;;;13.43;76.69;102137.28;5093014;28;20463;-77
2022/08/31 05:27:32;;;;;;;7.78;3.38;;;;;;;13.30;76.33;102109.50;5092565;28;20054;-80
2022/08/31 05:29:57;;;;;;;6.68;2.83;;;;;;;13.44;76.48;102128.56;5092912;28;20059;-77
2022/08/31 05:32:23;;;;;;;6.32;3.45;;;;;;;13.55;76.23;102146.16;5092441;28;20122;-80
2022/08/31 05:34:48;;;;;;;6.45;3.08;;;;;;;13.60;75.98;102144.16;5092759;28;20034;-77
2022/08/31 05:37:14;;;;;;;6.30;3.03;;;;;;;13.58;75.72;102132.19;5092567;28;20027;-80
2022/08/31 05:39:39;;;;;;;9.13;2.90;;;;;;;13.69;75.52;102150.63;5092644;28;20047;-80
2022/08/31 05:42:06;;;;;;;5.03;2.85;;;;;;;13.60;75.15;102126.00;5092839;28;20019;-81
2022/08/31 05:44:33;;;;;;;5.32;2.85;;;;;;;13.82;74.15;102143.81;5092640;28;20020;-80
2022/08/31 05:46:59;;;;;;;6.55;3.33;;;;;;;13.93;74.23;102148.41;5092585;28;20051;-78
2022/08/31 05:49:25;;;;;;;6.30;2.88;;;;;;;14.01;73.67;102147.06;5095507;28;20056;-81
2022/08/31 05:51:50;;;;;;;5.05;2.70;;;;;;;14.10;73.34;102152.66;5096635;28;20024;-82
2022/08/31 05:54:16;;;;;;;5.53;3.03;;;;;;;14.28;72.81;102149.00;5096544;28;20024;-81
2022/08/31 05:56:42;;;;;;;7.28;2.90;;;;;;;14.58;71.21;102143.84;5096542;28;20060;-77
2022/08/31 05:59:08;;;;;;;6.50;2.80;;;;;;;15.18;68.79;102141.91;5096556;28;20035;-81
2022/08/31 06:01:37;;;;;;;6.50;2.30;;;;;;;15.66;66.40;102120.75;5096461;28;20519;-81
2022/08/31 06:04:03;;;;;;;7.53;2.40;;;;;;;16.32;65.06;102146.81;5096505;28;20070;-80
2022/08/31 06:06:29;;;;;;;5.00;2.70;;;;;;;16.74;61.84;102144.88;5096336;28;20028;-81
2022/08/31 06:08:55;;;;;;;5.47;2.33;;;;;;;17.44;61.37;102145.19;5096570;28;20031;-81
2022/08/31 06:11:24;;;;;;;7.47;2.50;;;;;;;17.97;57.95;102145.75;5096411;28;20028;-81
2022/08/31 06:13:52;;;;;;;3.47;2.00;;;;;;;18.46;55.93;102123.78;5096295;28;20024;-79
2022/08/31 06:16:18;;;;;;;6.25;2.28;;;;;;;18.95;53.46;102151.47;5084475;28;20077;-76
2022/08/31 06:18:50;;;;;;;5.13;2.20;;;;;;;18.58;53.99;102146.44;5075942;28;20027;-79
2022/08/31 06:21:22;;;;;;;7.57;2.20;;;;;;;18.81;54.20;102156.94;5075892;28;20098;-76
2022/08/31 06:23:51;;;;;;;4.47;2.03;;;;;;;19.29;52.32;102149.69;5075479;28;20063;-82
2022/08/31 06:26:19;;;;;;;6.00;2.05;;;;;;;20.03;51.60;102145.44;5075366;28;20048;-76
2022/08/31 06:28:47;;;;;;;5.78;1.77;;;;;;;20.40;48.89;102138.94;5075554;28;20091;-80
2022/08/31 06:31:20;;;;;;;6.22;2.20;;;;;;;20.13;49.23;102134.19;5075484;28;20472;-78
2022/08/31 06:33:46;;;;;;;3.67;1.90;;;;;;;20.15;49.00;102148.00;5075233;28;20044;-81
2022/08/31 06:36:14;;;;;;;6.65;2.08;;;;;;;19.83;50.28;102146.22;5075361;28;20400;-82
2022/08/31 06:38:42;;;;;;;6.47;2.10;;;;;;;19.90;49.51;102146.56;5075377;28;20032;-81
2022/08/31 06:41:35;;;;;;;5.30;2.10;;;;;;;19.85;51.06;102152.19;5075513;28;20103;-82
2022/08/31 06:44:01;;;;;;;6.13;2.03;;;;;;;19.74;49.97;102154.84;4993845;28;20077;-82
2022/08/31 06:46:28;;;;;;;5.43;1.92;;;;;;;19.96;49.36;102167.03;4994028;28;20046;-82
2022/08/31 06:48:55;;;;;;;7.13;2.08;;;;;;;19.95;49.47;102168.00;4993659;28;20070;-84
2022/08/31 06:51:20;;;;;;;6.53;1.98;;;;;;;20.69;48.25;102174.09;4994052;28;20031;-84
2022/08/31 06:53:49;;;;;;;9.45;1.92;;;;;;;20.99;47.16;102168.03;4993672;28;20050;-85
2022/08/31 06:56:17;;;;;;;5.03;1.98;;;;;;;21.11;46.54;102174.84;4993758;28;20442;-83
2022/08/31 06:58:45;;;;;;;4.75;1.98;;;;;;;21.85;45.79;102178.94;4993810;28;20483;-86
2022/08/31 07:01:18;;;;;;;6.13;2.05;;;;;;;22.06;44.70;102182.25;4993361;28;20034;-84
2022/08/31 07:03:47;;;;;;;5.35;2.10;;;;;;;21.71;44.98;102178.34;4993585;28;20109;-83
2022/08/31 07:06:19;;;;;;;3.90;1.90;;;;;;;20.43;46.81;102178.91;4993576;28;20509;-83
2022/08/31 07:08:52;;;;;;;5.53;1.83;;;;;;;19.24;49.45;102178.00;4993359;28;20054;-81
2022/08/31 07:24:41;;;;;;;5.55;2.50;;;;;;;16.10;58.17;102072.72;5074645;28;20151;-84
2022/08/31 07:35:47;;;;;;;9.05;3.15;;;;;;;16.68;60.17;102197.47;5061976;28;20060;-83
2022/08/31 07:43:56;;;;;;;6.40;2.38;;;;;;;16.58;60.98;102173.72;5054516;28;20036;-83
2022/08/31 07:46:21;;;;;;;4.80;2.80;;;;;;;16.71;60.91;102184.19;5054350;28;20033;-83
2022/08/31 07:48:46;;;;;;;6.05;2.80;;;;;;;16.73;60.82;102174.53;5073909;28;20032;-87
2022/08/31 07:51:14;;;;;;;7.18;3.10;;;;;;;16.63;60.75;102144.75;5073913;28;20353;-83
2022/08/31 08:01:25;;;;;;;6.20;3.03;;;;;;;17.06;60.30;102207.91;5448399;23;20053;-85
2022/08/31 08:03:52;;;;;;;6.00;2.78;;;;;;;17.21;61.41;102206.03;5053645;28;20107;-87
2022/08/31 08:06:18;;;;;;;6.78;3.10;;;;;;;17.19;61.72;102168.75;5053356;28;20492;-87
2022/08/31 08:08:45;;;;;;;5.85;3.13;;;;;;;17.33;60.66;102191.28;5036107;28;20063;-84
2022/08/31 08:11:16;;;;;;;6.30;2.95;;;;;;;17.45;60.33;102209.53;5052788;28;20021;-84
2022/08/31 08:13:42;;;;;;;7.53;3.23;;;;;;;17.48;60.75;102205.88;5035801;28;20036;-83
2022/08/31 08:16:07;;;;;;;6.32;3.33;;;;;;;17.39;60.79;102196.06;5053457;28;20386;-83
2022/08/31 08:18:38;;;;;;;6.38;3.03;;;;;;;17.37;61.17;102182.28;5053546;28;20021;-83
2022/08/31 08:56:27;;;;;;;7.80;3.40;;;;;;;17.60;58.65;102037.00;6193033;23;20069;-81
2022/08/31 08:59:33;;;;;;;6.53;3.42;;;;;;;18.64;58.90;102210.53;6193188;23;20017;-83
2022/08/31 09:06:20;;;;;;;7.25;3.60;;;;;;;18.90;59.17;102205.97;6191295;23;20013;-77
2022/08/31 09:12:23;;;;;;;9.65;4.05;;;;;;;19.14;57.38;102198.00;6192943;23;20518;-79
2022/08/31 09:15:44;;;;;;;8.23;3.83;;;;;;;19.22;57.26;102194.78;6192313;23;20055;-81
2022/08/31 09:25:04;;;;;;;;;;;;;;;19.53;58.18;102206.31;6193141;23;20144;-80
2022/08/31 09:27:58;;;;;;;7.97;3.70;;;;;;;18.73;57.24;102075.56;6193146;23;20342;-84
2022/08/31 09:30:32;;;;;;;8.07;3.70;;;;;;;19.68;57.54;102208.59;6192555;23;20032;-83
2022/08/31 09:32:58;;;;;;;8.82;4.78;;;;;;;19.52;56.52;102166.19;6192652;23;20008;-80
2022/08/31 09:35:40;;;;;;;7.45;4.55;;;;;;;19.84;56.59;102199.50;6192678;23;20011;-83
2022/08/31 09:38:14;;;;;;;11.57;4.43;;;;;;;19.85;56.30;102188.88;6192499;23;20352;-82
2022/08/31 09:40:42;;;;;;;10.02;4.32;;;;;;;20.04;57.01;102196.91;6192792;23;20031;-82
2022/08/31 09:43:22;;;;;;;8.82;4.97;;;;;;;20.20;55.70;102207.00;6192489;23;20085;-83
2022/08/31 09:45:56;;;;;;;8.98;4.97;;;;;;;20.24;55.28;102197.91;6186209;23;20063;-85
2022/08/31 09:48:50;;;;;;;8.40;4.30;;;;;;;20.31;55.63;102185.97;6186305;23;20015;-85
2022/08/31 09:51:20;;;;;;;9.75;4.35;;;;;;;20.33;56.60;102165.69;6185834;23;20489;-84
2022/08/31 09:56:51;;;;;;;8.77;4.50;;;;;;;20.75;55.42;102210.34;6065528;23;20007;-78
2022/08/31 09:59:36;;;;;;;8.90;4.45;;;;;;;20.58;55.21;102167.13;6041972;23;20066;-79
2022/08/31 10:02:08;;;;;;;6.97;4.20;;;;;;;20.66;54.22;102181.41;6065858;23;20011;-78
2022/08/31 10:04:40;;;;;;;11.88;4.93;;;;;;;20.80;54.23;102200.25;6065763;23;20046;-78
2022/08/31 10:07:16;;;;;;;9.10;4.97;;;;;;;20.82;53.86;102197.50;6065997;23;20034;-79
2022/08/31 10:09:54;;;;;;;12.60;4.80;;;;;;;20.83;54.70;102197.38;6041961;23;20017;-79
2022/08/31 10:12:45;;;;;;;8.40;5.13;;;;;;;20.91;54.95;102183.59;6065505;23;20007;-79
2022/08/31 10:15:19;;;;;;;9.32;4.82;;;;;;;21.01;55.68;102192.34;6066285;23;20433;-80
2022/08/31 10:18:12;;;;;;;9.57;4.88;;;;;;;21.17;55.19;102184.81;6066134;23;20337;-78
2022/08/31 10:20:47;;;;;;;8.15;4.82;;;;;;;21.04;54.71;102151.84;6066204;23;20428;-85
2022/08/31 10:23:36;;;;;;;8.30;4.38;;;;;;;21.16;54.74;102191.06;6065854;23;20006;-86
2022/08/31 10:26:09;;;;;;;9.45;4.93;;;;;;;21.09;54.28;102191.69;6065889;23;20389;-87
2022/08/31 10:28:50;;;;;;;9.95;5.00;;;;;;;21.00;54.39;102137.34;6066655;23;20011;-84
2022/08/31 10:31:31;;;;;;;8.40;4.75;;;;;;;21.22;54.41;102144.19;6065756;23;20007;-84
2022/08/31 10:37:02;;;;;;;10.32;5.10;;;;;;;21.58;53.01;102162.00;6185847;23;20351;-82
2022/08/31 10:39:37;;;;;;;9.75;5.07;;;;;;;21.76;53.16;102184.03;6185621;23;20076;-81
2022/08/31 10:42:08;;;;;;;14.07;5.50;;;;;;;21.94;52.65;102188.63;6185640;23;20001;-84
2022/08/31 10:44:42;;;;;;;12.20;5.13;;;;;;;21.90;52.34;102179.34;6185804;23;20009;-84
2022/08/31 10:47:08;;;;;;;12.27;5.18;;;;;;;21.76;52.76;102175.31;6184538;23;20412;-79
2022/08/31 10:49:34;;;;;;;13.18;5.72;;;;;;;20.71;52.85;102022.53;6185644;23;20012;-81
2022/08/31 10:52:16;;;;;;;11.05;5.63;;;;;;;21.54;53.57;102171.13;6185657;23;20005;-83
2022/08/31 10:54:47;;;;;;;8.95;4.82;;;;;;;21.61;54.08;102166.97;6185149;23;20005;-83
2022/08/31 10:57:37;;;;;;;10.02;4.88;;;;;;;21.66;53.90;102145.56;6184784;23;20012;-83
2022/08/31 11:00:40;;;;;;;10.50;4.82;;;;;;;21.78;53.15;102165.50;6185871;23;20009;-82
2022/08/31 11:03:03;;;;;;;9.80;4.63;;;;;;;21.73;53.84;102175.59;6185280;23;20434;-83
2022/08/31 11:05:51;;;;;;;12.55;5.40;;;;;;;21.70;54.12;102168.78;6185466;23;20005;-87
2022/08/31 11:08:33;;;;;;;10.35;4.93;;;;;;;21.88;54.17;102171.59;6065098;23;20014;-82
2022/08/31 11:11:07;;;;;;;11.15;4.63;;;;;;;21.97;53.95;102176.03;6065882;23;20007;-81
2022/08/31 11:13:55;;;;;;;14.27;5.35;;;;;;;21.86;53.24;102134.06;6065712;23;20086;-83
2022/08/31 11:16:31;;;;;;;9.00;4.80;;;;;;;21.91;53.05;102144.16;6065375;23;20015;-85
2022/08/31 11:19:41;;;;;;;12.52;4.97;;;;;;;21.66;52.78;102095.59;6065294;23;20043;-83
2022/08/31 11:22:33;;;;;;;8.40;4.57;;;;;;;22.15;53.43;102165.66;6065103;23;20010;-86
2022/08/31 11:25:23;;;;;;;9.65;4.65;;;;;;;22.00;53.13;102172.28;6065183;23;20006;-81
2022/08/31 11:28:32;;;;;;;10.38;4.60;;;;;;;21.92;52.68;102161.59;6065197;23;20066;-78
2022/08/31 11:31:00;;;;;;;6.93;4.15;;;;;;;21.91;53.07;102142.38;5979917;24;20139;-78
2022/08/31 11:33:27;;;;;;;9.52;4.97;;;;;;;22.23;53.07;102151.81;5980071;24;20012;-78
2022/08/31 11:36:01;;;;;;;11.27;5.30;;;;;;;22.40;52.24;102156.34;5979925;24;20087;-81
2022/08/31 11:38:56;;;;;;;11.80;4.82;;;;;;;22.44;53.03;102152.47;5979772;24;20019;-79
2022/08/31 11:41:30;;;;;;;13.10;4.63;;;;;;;22.55;52.54;102148.84;5980130;24;20085;-80
2022/08/31 11:43:56;;;;;;;9.07;4.22;;;;;;;22.64;52.25;102142.72;5980047;24;20431;-79
2022/08/31 11:46:24;;;;;;;10.27;4.88;;;;;;;22.70;51.56;102139.50;6060021;23;20576;-78
2022/08/31 11:48:49;;;;;;;12.32;5.88;;;;;;;22.73;50.55;102154.19;6065014;23;20011;-78
2022/08/31 11:51:32;;;;;;;11.77;5.38;;;;;;;22.74;51.40;102140.06;6065222;23;20397;-81
2022/08/31 11:54:00;;;;;;;8.57;5.43;;;;;;;22.66;50.14;102137.31;6064944;23;20019;-75
2022/08/31 11:56:36;;;;;;;6.90;4.57;;;;;;;22.71;51.15;102135.06;6065280;23;20011;-78
2022/08/31 11:59:35;;;;;;;9.68;5.15;;;;;;;22.74;51.08;102140.88;6065361;23;20042;-79
2022/08/31 12:02:18;;;;;;;10.43;5.13;;;;;;;22.80;51.34;102128.91;6040677;23;20500;-77
2022/08/31 12:04:59;;;;;;;9.40;5.30;;;;;;;22.74;49.91;102135.63;6065194;23;20059;-78
2022/08/31 12:07:30;;;;;;;14.55;4.85;;;;;;;22.65;50.38;102114.59;6114157;23;20005;-80
2022/08/31 12:10:01;;;;;;;;;;;;;;;22.75;51.29;102132.00;6185447;23;20316;-77
2022/08/31 12:12:29;;;;;;;8.88;4.40;;;;;;;22.77;50.29;102130.06;6184804;23;19928;-79
2022/08/31 12:15:11;;;;;;;10.18;4.40;;;;;;;22.79;50.76;102127.25;6185094;23;20029;-81
2022/08/31 12:17:45;;;;;;;9.63;5.20;;;;;;;22.77;50.25;102118.69;6185094;23;20382;-79
2022/08/31 12:20:26;;;;;;;13.85;5.35;;;;;;;22.87;49.99;102114.25;6184813;23;20008;-79
2022/08/31 12:26:24;;;;;;;7.85;4.60;;;;;;;22.99;50.29;102109.59;6184969;23;20016;-79
2022/08/31 12:29:42;;;;;;;9.80;5.22;;;;;;;22.95;49.50;102105.63;6184697;23;20072;-79
2022/08/31 12:32:22;;;;;;;11.00;5.18;;;;;;;22.94;49.96;102106.59;6152118;23;20006;-79
2022/08/31 12:35:09;;;;;;;8.32;4.78;;;;;;;22.95;49.67;102080.09;6152487;23;20029;-79
2022/08/31 12:37:36;;;;;;;10.85;4.55;;;;;;;23.19;49.32;102104.06;6152555;23;20021;-80
2022/08/31 12:40:14;;;;;;;10.05;4.45;;;;;;;23.25;49.11;102104.47;6152382;23;20014;-78
2022/08/31 12:42:51;;;;;;;10.15;4.70;;;;;;;23.13;48.89;102083.59;6152600;23;20336;-79
2022/08/31 12:45:17;;;;;;;8.52;5.03;;;;;;;23.28;48.13;102094.44;6152206;23;20018;-78
2022/08/31 12:47:54;;;;;;;9.43;4.75;;;;;;;23.17;48.94;102066.50;6152295;23;20015;-78
2022/08/31 12:50:37;;;;;;;9.95;4.30;;;;;;;23.36;49.02;102099.81;6152401;23;20021;-78
2022/08/31 12:53:29;;;;;;;8.13;4.38;;;;;;;23.32;48.84;102089.72;6152402;23;20060;-79
2022/08/31 12:55:59;;;;;;;10.48;4.85;;;;;;;23.17;48.62;102066.50;6152151;23;20387;-78
2022/08/31 12:58:50;;;;;;;8.50;4.40;;;;;;;23.24;48.48;102087.00;6152226;23;20032;-78
2022/08/31 13:01:21;;;;;;;;;;;;;;;23.27;49.47;102084.88;6152735;23;20444;-78
2022/08/31 13:03:52;;;;;;;6.23;3.77;;;;;;;23.33;49.38;102086.13;6152685;23;19909;-78
2022/08/31 13:06:26;;;;;;;10.80;4.38;;;;;;;23.52;48.86;102077.22;6152402;23;20006;-78
2022/08/31 13:08:55;;;;;;;7.75;4.60;;;;;;;23.49;48.64;102067.78;6167296;23;20009;-80
2022/08/31 13:11:40;;;;;;;10.57;4.18;;;;;;;23.59;48.70;102073.84;6184797;23;20012;-78
2022/08/31 13:14:19;;;;;;;9.38;4.68;;;;;;;23.53;48.37;102066.53;6184352;23;20034;-78
2022/08/31 13:16:50;;;;;;;8.15;4.30;;;;;;;23.59;47.97;102067.75;6184656;23;20060;-79
2022/08/31 13:19:29;;;;;;;7.63;4.28;;;;;;;23.60;47.80;102048.34;6184915;23;20331;-79